Four Otello — 9HA4680 — position and weather

sailwx.info

Track history (hours):
 
Tides and Currents Weather Stations Pressure Air Temp Water Temp Dewpoint Dewpoint Depression Visibility Wind Speed Wind Dir Waves Ship Positions

Four Otello

Last reported at 2018-Jul-13 15:49 UTC. Time now 2018-Jul-18 08:58 UTC.
Position N 37°18' E 010°01'.

Length 180 m; draft 6.2 m.

Type: Cargo ship. MMSI: 248510000.

Date/timePositionNaut miles runAvg speedWind from/ knotsBaromVisibWave heightAir tempDewpointWater temp
2018-Jul-13 15:49N 37°18' E 010°01'4212.5
2018-Jul-13 12:26N 37°14' E 010°53'613.0
2018-Jul-13 12:00N 37°11' E 010°60'1412.4
2018-Jul-13 10:51N 37°07' E 011°17'512.3
2018-Jul-13 10:26N 37°05' E 011°23'512.5
2018-Jul-13 10:00N 37°04' E 011°29'612.7
2018-Jul-13 09:30N 37°02' E 011°37'612.9
2018-Jul-13 09:00N 37°01' E 011°45'612.9
2018-Jul-13 08:30N 36°59' E 011°53'613.0
2018-Jul-13 08:00N 36°58' E 012°01'713.3
2018-Jul-13 07:30N 36°56' E 012°09'713.4
2018-Jul-13 06:59N 36°54' E 012°17'612.8
2018-Jul-13 06:30N 36°53' E 012°25'612.8
2018-Jul-13 06:00N 36°51' E 012°32'713.4
2018-Jul-13 05:30N 36°50' E 012°41'613.0
2018-Jul-13 05:00N 36°48' E 012°48'613.0
2018-Jul-13 04:30N 36°47' E 012°56'713.1
2018-Jul-13 03:56N 36°45' E 013°05'612.9
2018-Jul-13 03:29N 36°44' E 013°12'613.2
2018-Jul-13 03:00N 36°42' E 013°20'713.1
2018-Jul-13 02:30N 36°40' E 013°28'712.9
2018-Jul-13 02:00N 36°39' E 013°36'612.7
2018-Jul-13 01:30N 36°38' E 013°44'612.4
2018-Jul-13 01:00N 36°37' E 013°51'612.4
2018-Jul-13 00:30N 36°35' E 013°59'612.2
2018-Jul-13 00:00N 36°34' E 014°06'612.2
2018-Jul-12 23:30N 36°33' E 014°14'612.3
2018-Jul-12 23:00N 36°31' E 014°21'612.2
2018-Jul-12 22:30N 36°29' E 014°28'612.0
2018-Jul-12 22:00N 36°28' E 014°36'612.0
2018-Jul-12 21:30N 36°27' E 014°43'611.9
2018-Jul-12 21:00N 36°27' E 014°50'612.1
2018-Jul-12 20:30N 36°27' E 014°58'612.4
2018-Jul-12 20:00N 36°27' E 015°06'40712.1
2018-Jul-11 10:18N 36°47' E 023°32'412.8
2018-Jul-11 10:00N 36°51' E 023°34'6313.1
2018-Jul-11 05:14N 37°44' E 024°16'  
Track history (hours):
 
Tides and Currents Weather Stations Pressure Air Temp Water Temp Dewpoint Dewpoint Depression Visibility Wind Speed Wind Dir Waves Ship Positions

Four Otello

Last reported at 2018-Jul-13 15:49 UTC. Time now 2018-Jul-18 08:58 UTC.
Position N 37°18' E 010°01'.

Length 180 m; draft 6.2 m.

Type: Cargo ship. MMSI: 248510000.

Date/timePositionNaut miles runAvg speedWind from/ knotsBaromVisibWave heightAir tempDewpointWater temp
2018-Jul-13 15:49N 37°18' E 010°01'4212.5
2018-Jul-13 12:26N 37°14' E 010°53'613.0
2018-Jul-13 12:00N 37°11' E 010°60'1412.4
2018-Jul-13 10:51N 37°07' E 011°17'512.3
2018-Jul-13 10:26N 37°05' E 011°23'512.5
2018-Jul-13 10:00N 37°04' E 011°29'612.7
2018-Jul-13 09:30N 37°02' E 011°37'612.9
2018-Jul-13 09:00N 37°01' E 011°45'612.9
2018-Jul-13 08:30N 36°59' E 011°53'613.0
2018-Jul-13 08:00N 36°58' E 012°01'713.3
2018-Jul-13 07:30N 36°56' E 012°09'713.4
2018-Jul-13 06:59N 36°54' E 012°17'612.8
2018-Jul-13 06:30N 36°53' E 012°25'612.8
2018-Jul-13 06:00N 36°51' E 012°32'713.4
2018-Jul-13 05:30N 36°50' E 012°41'613.0
2018-Jul-13 05:00N 36°48' E 012°48'613.0
2018-Jul-13 04:30N 36°47' E 012°56'713.1
2018-Jul-13 03:56N 36°45' E 013°05'612.9
2018-Jul-13 03:29N 36°44' E 013°12'613.2
2018-Jul-13 03:00N 36°42' E 013°20'713.1
2018-Jul-13 02:30N 36°40' E 013°28'712.9
2018-Jul-13 02:00N 36°39' E 013°36'612.7
2018-Jul-13 01:30N 36°38' E 013°44'612.4
2018-Jul-13 01:00N 36°37' E 013°51'612.4
2018-Jul-13 00:30N 36°35' E 013°59'612.2
2018-Jul-13 00:00N 36°34' E 014°06'612.2
2018-Jul-12 23:30N 36°33' E 014°14'612.3
2018-Jul-12 23:00N 36°31' E 014°21'612.2
2018-Jul-12 22:30N 36°29' E 014°28'612.0
2018-Jul-12 22:00N 36°28' E 014°36'612.0
2018-Jul-12 21:30N 36°27' E 014°43'611.9
2018-Jul-12 21:00N 36°27' E 014°50'612.1
2018-Jul-12 20:30N 36°27' E 014°58'612.4
2018-Jul-12 20:00N 36°27' E 015°06'40712.1
2018-Jul-11 10:18N 36°47' E 023°32'412.8
2018-Jul-11 10:00N 36°51' E 023°34'6313.1
2018-Jul-11 05:14N 37°44' E 024°16'  

Dump ship's entire track history